Time,TemperatureF,DewpointF,PressureIn,WindDirection,WindDirectionDegrees,WindSpeedMPH,WindSpeedGustMPH,Humidity,HourlyPrecipIn,Conditions,Clouds,dailyrainin,SolarRadiationWatts/m^2,SoftwareType,DateUTC
2013-02-25 00:00:00,31.1,15.5,29.96,North,0,0.0,0.0,52,0.00,,BKN250,0.00,109.00,VWS V14.01,2013-02-25 05:00:00,
2013-02-25 01:00:00,31.1,15.5,29.98,North,0,0.0,0.0,52,0.00,,BKN250,0.00,109.00,VWS V14.01,2013-02-25 06:00:00,
2013-02-25 02:00:00,31.1,15.5,30.00,North,0,0.0,0.0,52,0.00,,BKN250,0.00,109.00,VWS V14.01,2013-02-25 07:00:00,
2013-02-25 03:00:00,31.1,15.5,30.01,North,0,0.0,0.0,52,0.00,,BKN250,0.00,109.00,VWS V14.01,2013-02-25 08:00:00,
2013-02-25 04:00:00,31.1,15.5,30.03,North,0,0.0,0.0,52,0.00,,BKN250,0.00,109.00,VWS V14.01,2013-02-25 09:00:00,
2013-02-25 05:00:00,31.1,15.5,30.04,North,0,0.0,0.0,52,0.00,,BKN250,0.00,109.00,VWS V14.01,2013-02-25 10:00:00,
2013-02-25 06:00:00,31.1,15.5,30.06,North,0,0.0,0.0,52,0.00,,BKN250,0.00,109.00,VWS V14.01,2013-02-25 11:00:00,
2013-02-25 07:00:00,31.1,15.5,30.08,North,0,0.0,0.0,52,0.00,,BKN250,0.00,109.00,VWS V14.01,2013-02-25 12:00:00,
2013-02-25 08:00:00,31.1,15.5,30.11,North,0,0.0,0.0,52,0.00,,BKN250,0.00,109.00,VWS V14.01,2013-02-25 13:00:00,
2013-02-25 09:00:00,31.1,15.5,30.12,North,0,0.0,0.0,52,0.00,,BKN250,0.00,109.00,VWS V14.01,2013-02-25 14:00:00,
2013-02-25 10:00:00,31.1,15.5,30.13,North,0,0.0,0.0,52,0.00,,BKN250,0.00,109.00,VWS V14.01,2013-02-25 15:00:00,
2013-02-25 11:00:00,31.1,15.5,30.13,North,0,0.0,0.0,52,0.00,,BKN250,0.00,109.00,VWS V14.01,2013-02-25 16:00:00,
2013-02-25 12:00:00,31.1,15.5,30.13,North,0,0.0,0.0,52,0.00,,BKN250,0.00,109.00,VWS V14.01,2013-02-25 17:00:00,
2013-02-25 12:55:00,45.1,29.5,30.10,WNW,294,6.0,7.0,54,25.34,,,0.00,564.00,VWS V14.01,2013-02-25 17:55:00,
2013-02-25 13:00:00,31.1,15.5,30.14,North,0,0.0,0.0,52,25.34,,BKN250,0.00,109.00,VWS V14.01,2013-02-25 18:00:00,
2013-02-25 13:05:00,45.6,28.5,30.10,North,350,4.0,8.0,51,0.00,,,0.00,570.00,VWS V14.01,2013-02-25 18:05:00,
2013-02-25 13:10:00,45.6,29.0,30.10,West,280,5.0,7.0,52,0.00,,,0.00,540.00,VWS V14.01,2013-02-25 18:10:00,
2013-02-25 13:15:00,45.5,28.4,30.11,North,5,3.0,7.0,51,0.00,,,0.00,563.00,VWS V14.01,2013-02-25 18:15:00,
2013-02-25 13:20:00,45.2,28.2,30.11,NNW,328,4.0,8.0,51,0.00,,,0.00,557.00,VWS V14.01,2013-02-25 18:20:00,
2013-02-25 13:25:00,45.1,28.1,30.11,North,355,6.0,7.0,51,0.00,,,0.00,512.00,VWS V14.01,2013-02-25 18:25:00,
2013-02-25 13:30:00,45.0,28.5,30.11,North,355,2.0,6.0,52,0.00,,,0.00,517.00,VWS V14.01,2013-02-25 18:30:00,
2013-02-25 13:35:00,45.3,28.7,30.11,WNW,298,5.0,7.0,52,0.00,,,0.00,497.00,VWS V14.01,2013-02-25 18:35:00,
2013-02-25 13:37:00,31.1,15.5,30.13,North,0,0.0,0.0,52,0.00,,BKN250,0.00,109.00,VWS V14.01,2013-02-25 18:37:00,
2013-02-25 13:40:00,45.4,28.8,30.11,North,9,4.0,6.0,52,0.00,,,0.00,494.00,VWS V14.01,2013-02-25 18:40:00,
2013-02-25 13:45:00,45.6,27.6,30.11,WSW,250,5.0,7.0,49,0.00,,,0.00,485.00,VWS V14.01,2013-02-25 18:45:00,
2013-02-25 13:46:00,31.1,15.5,30.13,North,0,0.0,0.0,52,25.34,,BKN250,0.00,109.00,VWS V14.01,2013-02-25 18:46:00,
2013-02-25 13:50:00,45.6,27.6,30.12,NNW,342,3.0,7.0,49,0.00,,,0.00,482.00,VWS V14.01,2013-02-25 18:50:00,
2013-02-25 13:51:00,31.1,15.5,30.14,North,0,0.0,0.0,52,25.34,,BKN250,0.00,109.00,VWS V14.01,2013-02-25 18:51:00,
2013-02-25 13:55:00,45.9,28.3,30.12,NW,317,5.0,7.0,50,0.00,,,0.00,468.00,VWS V14.01,2013-02-25 18:55:00,
2013-02-25 13:56:00,45.1,29.0,30.10,NNW,341,5.0,6.0,53,0.00,,BKN250,0.00,526.00,VWS V14.01,2013-02-25 18:56:00,
2013-02-25 14:00:00,45.9,27.8,30.12,NNW,348,3.0,9.0,49,0.00,,,0.00,469.00,VWS V14.01,2013-02-25 19:00:00,
2013-02-25 14:01:00,45.6,29.5,30.10,North,355,2.0,4.0,53,0.00,,BKN047,0.00,557.00,VWS V14.01,2013-02-25 19:01:00,
2013-02-25 14:05:00,45.9,28.3,30.13,North,355,4.0,6.0,50,0.00,,,0.00,174.00,VWS V14.01,2013-02-25 19:05:00,
2013-02-25 14:06:00,45.6,28.5,30.10,NNW,333,4.0,6.0,51,0.00,,BKN047,0.00,552.00,VWS V14.01,2013-02-25 19:06:00,
2013-02-25 14:10:00,45.9,27.8,30.13,NW,315,2.0,5.0,49,0.00,,,0.00,123.00,VWS V14.01,2013-02-25 19:10:00,
2013-02-25 14:11:00,45.6,28.5,30.10,NW,313,6.0,7.0,51,0.00,,BKN047,0.00,540.00,VWS V14.01,2013-02-25 19:11:00,
2013-02-25 14:15:00,45.6,27.1,30.13,North,5,4.0,5.0,48,0.00,,,0.00,127.00,VWS V14.01,2013-02-25 19:15:00,
2013-02-25 14:16:00,45.5,28.4,30.11,NNE,15,6.0,6.0,51,0.00,,BKN047,0.00,557.00,VWS V14.01,2013-02-25 19:16:00,
2013-02-25 14:20:00,45.2,27.7,30.13,North,350,0.0,5.0,50,0.00,,,0.00,88.00,VWS V14.01,2013-02-25 19:20:00,
2013-02-25 14:21:00,45.2,28.2,30.11,NNW,344,4.0,4.0,51,0.00,,BKN047,0.00,531.00,VWS V14.01,2013-02-25 19:21:00,
2013-02-25 14:25:00,45.0,27.5,30.13,NW,306,5.0,5.0,50,0.00,,,0.00,84.00,VWS V14.01,2013-02-25 19:25:00,
2013-02-25 14:26:00,45.1,28.1,30.11,North,355,5.0,6.0,51,0.00,,BKN047,0.00,534.00,VWS V14.01,2013-02-25 19:26:00,
2013-02-25 14:30:00,44.6,27.6,30.13,NW,321,1.0,5.0,51,0.00,,,0.00,95.00,VWS V14.01,2013-02-25 19:30:00,
2013-02-25 14:31:00,45.0,28.5,30.11,North,360,2.0,5.0,52,0.00,,BKN047,0.00,508.00,VWS V14.01,2013-02-25 19:31:00,
2013-02-25 14:35:00,44.3,27.8,30.13,WNW,288,3.0,5.0,52,0.00,,,0.00,88.00,VWS V14.01,2013-02-25 19:35:00,
2013-02-25 14:36:00,45.3,28.2,30.11,WNW,303,5.0,5.0,51,0.00,,BKN047,0.00,506.00,VWS V14.01,2013-02-25 19:36:00,
2013-02-25 14:40:00,44.1,27.6,30.13,NNW,336,0.0,8.0,52,0.00,,,0.00,230.00,VWS V14.01,2013-02-25 19:40:00,
2013-02-25 14:41:00,45.5,28.4,30.11,NNE,13,2.0,4.0,51,0.00,,BKN047,0.00,494.00,VWS V14.01,2013-02-25 19:41:00,
2013-02-25 14:45:00,44.1,28.1,30.12,NNW,336,0.0,2.0,53,0.00,,,0.00,283.00,VWS V14.01,2013-02-25 19:45:00,
2013-02-25 14:46:00,45.6,28.0,30.11,NNW,329,5.0,5.0,50,0.00,,BKN047,0.00,483.00,VWS V14.01,2013-02-25 19:46:00,
2013-02-25 14:50:00,44.4,28.4,30.12,NNW,336,0.0,3.0,53,0.00,,,0.00,243.00,VWS V14.01,2013-02-25 19:50:00,
2013-02-25 14:51:00,45.7,28.1,30.12,NNW,339,2.0,4.0,50,0.00,,BKN047,0.00,459.00,VWS V14.01,2013-02-25 19:51:00,
2013-02-25 14:55:00,44.5,28.5,30.12,NNW,341,1.0,4.0,53,0.00,,,0.00,81.00,VWS V14.01,2013-02-25 19:55:00,
2013-02-25 14:56:00,45.9,28.3,30.12,NNE,15,4.0,6.0,50,0.00,,BKN047,0.00,457.00,VWS V14.01,2013-02-25 19:56:00,
2013-02-25 15:00:00,44.7,28.6,30.12,NNW,340,2.0,2.0,53,0.00,,,0.00,72.00,VWS V14.01,2013-02-25 20:00:00,
2013-02-25 15:01:00,45.8,27.7,30.12,NW,321,2.0,6.0,49,0.00,,BKN049,0.00,473.00,VWS V14.01,2013-02-25 20:01:00,
2013-02-25 15:05:00,44.7,28.6,30.12,NNW,340,0.0,3.0,53,0.00,,,0.00,146.00,VWS V14.01,2013-02-25 20:05:00,
2013-02-25 15:06:00,45.9,27.8,30.13,North,355,2.0,4.0,49,0.00,,BKN049,0.00,174.00,VWS V14.01,2013-02-25 20:06:00,
2013-02-25 15:10:00,44.7,28.6,30.13,NNW,340,2.0,2.0,53,0.00,,,0.00,51.00,VWS V14.01,2013-02-25 20:10:00,
2013-02-25 15:11:00,45.8,27.7,30.13,North,355,4.0,4.0,49,0.00,,BKN049,0.00,121.00,VWS V14.01,2013-02-25 20:11:00,
2013-02-25 15:15:00,44.5,28.5,30.14,NW,305,0.0,5.0,53,0.00,,,0.00,47.00,VWS V14.01,2013-02-25 20:15:00,
2013-02-25 15:16:00,45.4,27.4,30.13,North,349,3.0,5.0,49,0.00,,BKN049,0.00,105.00,VWS V14.01,2013-02-25 20:16:00,
2013-02-25 15:20:00,44.2,28.2,30.14,NW,305,0.0,1.0,53,0.00,,,0.00,44.00,VWS V14.01,2013-02-25 20:20:00,
2013-02-25 15:21:00,45.2,27.7,30.13,NNE,18,1.0,4.0,50,0.00,,BKN049,0.00,86.00,VWS V14.01,2013-02-25 20:21:00,
2013-02-25 15:25:00,43.9,28.4,30.14,NW,305,0.0,3.0,54,0.00,,,0.00,44.00,VWS V14.01,2013-02-25 20:25:00,
2013-02-25 15:26:00,44.9,27.4,30.13,NW,306,2.0,5.0,50,0.00,,BKN049,0.00,90.00,VWS V14.01,2013-02-25 20:26:00,
2013-02-25 15:30:00,43.7,28.6,30.13,NW,305,0.0,1.0,55,0.00,,,0.00,40.00,VWS V14.01,2013-02-25 20:30:00,
2013-02-25 15:31:00,44.5,27.5,30.13,NNW,340,3.0,4.0,51,0.00,,BKN049,0.00,97.00,VWS V14.01,2013-02-25 20:31:00,
2013-02-25 15:35:00,43.5,28.0,30.13,NW,304,0.0,4.0,54,0.00,,,0.00,56.00,VWS V14.01,2013-02-25 20:35:00,
2013-02-25 15:36:00,44.3,27.8,30.13,WNW,292,4.0,8.0,52,0.00,,BKN049,0.00,167.00,VWS V14.01,2013-02-25 20:36:00,
2013-02-25 15:40:00,43.4,28.3,30.13,NW,304,0.0,0.0,55,0.00,,,0.00,63.00,VWS V14.01,2013-02-25 20:40:00,
2013-02-25 15:41:00,44.1,28.1,30.12,NNW,336,0.0,1.0,53,0.00,,BKN049,0.00,315.00,VWS V14.01,2013-02-25 20:41:00,
2013-02-25 15:45:00,43.2,28.1,30.13,NW,304,0.0,2.0,55,0.00,,,0.00,100.00,VWS V14.01,2013-02-25 20:45:00,
2013-02-25 15:46:00,44.1,28.1,30.12,NNW,336,1.0,1.0,53,0.00,,BKN049,0.00,283.00,VWS V14.01,2013-02-25 20:46:00,
2013-02-25 15:50:00,43.2,28.6,30.13,NW,304,0.0,2.0,56,0.00,,,0.00,114.00,VWS V14.01,2013-02-25 20:50:00,
2013-02-25 15:51:00,44.4,28.4,30.12,NNW,336,1.0,2.0,53,0.00,,BKN049,0.00,243.00,VWS V14.01,2013-02-25 20:51:00,
2013-02-25 15:55:00,43.3,28.7,30.12,NW,304,0.0,3.0,56,0.00,,,0.00,90.00,VWS V14.01,2013-02-25 20:55:00,
2013-02-25 15:56:00,44.5,28.9,30.12,NNW,341,0.0,1.0,54,0.00,,BKN049,0.00,281.00,VWS V14.01,2013-02-25 20:56:00,
2013-02-25 16:00:00,43.4,28.3,30.13,WNW,295,5.0,6.0,55,0.00,,,0.00,49.00,VWS V14.01,2013-02-25 21:00:00,
2013-02-25 16:01:00,44.7,28.6,30.12,NNW,340,1.0,2.0,53,0.00,,BKN049,0.00,69.00,VWS V14.01,2013-02-25 21:01:00,
2013-02-25 16:05:00,43.4,28.3,30.12,NW,317,0.0,5.0,55,0.00,,,0.00,37.00,VWS V14.01,2013-02-25 21:05:00,
2013-02-25 16:06:00,44.7,28.6,30.13,NNW,340,0.0,0.0,53,0.00,,BKN049,0.00,84.00,VWS V14.01,2013-02-25 21:06:00,
2013-02-25 16:10:00,43.3,28.2,30.13,NW,317,0.0,2.0,55,0.00,,,0.00,37.00,VWS V14.01,2013-02-25 21:10:00,
2013-02-25 16:11:00,44.7,28.6,30.13,NW,323,4.0,4.0,53,0.00,,BKN049,0.00,49.00,VWS V14.01,2013-02-25 21:11:00,
2013-02-25 16:15:00,43.2,28.1,30.13,NW,317,1.0,3.0,55,0.00,,,0.00,28.00,VWS V14.01,2013-02-25 21:15:00,
2013-02-25 16:16:00,44.4,28.4,30.14,NW,305,0.0,1.0,53,0.00,,BKN049,0.00,47.00,VWS V14.01,2013-02-25 21:16:00,
2013-02-25 16:20:00,43.0,28.4,30.13,NW,317,2.0,2.0,56,0.00,,,0.00,19.00,VWS V14.01,2013-02-25 21:20:00,
2013-02-25 16:21:00,44.2,28.6,30.14,NW,305,0.0,0.0,54,0.00,,BKN049,0.00,44.00,VWS V14.01,2013-02-25 21:21:00,
2013-02-25 16:25:00,42.7,28.5,30.13,NW,323,3.0,3.0,57,0.00,,,0.00,14.00,VWS V14.01,2013-02-25 21:25:00,
2013-02-25 16:26:00,43.8,28.2,30.14,NW,305,0.0,0.0,54,0.00,,BKN049,0.00,44.00,VWS V14.01,2013-02-25 21:26:00,
2013-02-25 16:30:00,42.4,28.7,30.14,NW,323,0.0,3.0,58,0.00,,,0.00,11.00,VWS V14.01,2013-02-25 21:30:00,
2013-02-25 16:31:00,43.7,28.2,30.13,NW,305,0.0,0.0,54,0.00,,BKN049,0.00,42.00,VWS V14.01,2013-02-25 21:31:00,
2013-02-25 16:35:00,42.2,28.9,30.14,NW,323,0.0,0.0,59,0.00,,,0.00,7.00,VWS V14.01,2013-02-25 21:35:00,
2013-02-25 16:36:00,43.5,28.4,30.13,NW,304,0.0,0.0,55,0.00,,BKN049,0.00,60.00,VWS V14.01,2013-02-25 21:36:00,
2013-02-25 16:40:00,41.9,29.0,30.14,NW,323,0.0,1.0,60,0.00,,,0.00,0.00,VWS V14.01,2013-02-25 21:40:00,
2013-02-25 16:41:00,43.4,28.3,30.13,NW,304,0.0,0.0,55,0.00,,BKN049,0.00,63.00,VWS V14.01,2013-02-25 21:41:00,
2013-02-25 16:45:00,41.6,28.8,30.14,NW,323,0.0,2.0,60,0.00,,,0.00,0.00,VWS V14.01,2013-02-25 21:45:00,
2013-02-25 16:46:00,43.2,28.1,30.13,NW,304,0.0,0.0,55,0.00,,BKN049,0.00,100.00,VWS V14.01,2013-02-25 21:46:00,
2013-02-25 16:50:00,41.3,28.9,30.14,NW,323,0.0,1.0,61,0.00,,,0.00,0.00,VWS V14.01,2013-02-25 21:50:00,
2013-02-25 16:51:00,43.2,28.6,30.13,NW,304,0.0,0.0,56,0.00,,BKN049,0.00,111.00,VWS V14.01,2013-02-25 21:51:00,
2013-02-25 16:55:00,40.8,28.8,30.15,NW,323,0.0,0.0,62,0.00,,,0.00,0.00,VWS V14.01,2013-02-25 21:55:00,
2013-02-25 16:56:00,43.3,28.7,30.12,NW,304,0.0,0.0,56,0.00,,BKN049,0.00,86.00,VWS V14.01,2013-02-25 21:56:00,
2013-02-25 17:00:00,40.4,28.8,30.15,NW,323,0.0,0.0,63,0.00,,,0.00,0.00,VWS V14.01,2013-02-25 22:00:00,
2013-02-25 17:01:00,43.4,28.3,30.13,NW,316,3.0,5.0,55,0.00,,BKN047,0.00,47.00,VWS V14.01,2013-02-25 22:01:00,
2013-02-25 17:05:00,40.0,28.8,30.15,NW,323,0.0,0.0,64,0.00,,,0.00,0.00,VWS V14.01,2013-02-25 22:05:00,
2013-02-25 17:06:00,43.4,28.3,30.12,NW,317,0.0,0.0,55,0.00,,BKN047,0.00,39.00,VWS V14.01,2013-02-25 22:06:00,
2013-02-25 17:10:00,39.7,28.9,30.15,NW,323,0.0,0.0,65,0.00,,,0.00,0.00,VWS V14.01,2013-02-25 22:10:00,
2013-02-25 17:11:00,43.3,28.2,30.13,NW,317,0.0,2.0,55,0.00,,BKN047,0.00,39.00,VWS V14.01,2013-02-25 22:11:00,
2013-02-25 17:15:00,39.3,28.9,30.16,NW,323,0.0,0.0,66,0.00,,,0.00,0.00,VWS V14.01,2013-02-25 22:15:00,
2013-02-25 17:16:00,43.1,28.0,30.13,NW,317,0.0,1.0,55,0.00,,BKN047,0.00,26.00,VWS V14.01,2013-02-25 22:16:00,
2013-02-25 17:20:00,39.0,29.0,30.16,NW,323,0.0,1.0,67,0.00,,,0.00,0.00,VWS V14.01,2013-02-25 22:20:00,
2013-02-25 17:21:00,42.9,28.3,30.13,NW,321,2.0,3.0,56,0.00,,BKN047,0.00,19.00,VWS V14.01,2013-02-25 22:21:00,
2013-02-25 17:25:00,38.6,29.0,30.16,NW,323,0.0,0.0,68,0.00,,,0.00,0.00,VWS V14.01,2013-02-25 22:25:00,
2013-02-25 17:26:00,42.6,28.5,30.14,NW,323,1.0,3.0,57,0.00,,BKN047,0.00,14.00,VWS V14.01,2013-02-25 22:26:00,
2013-02-25 17:30:00,38.4,28.8,30.17,NW,323,0.0,2.0,68,0.00,,,0.00,0.00,VWS V14.01,2013-02-25 22:30:00,
2013-02-25 17:31:00,42.4,29.1,30.14,NW,323,0.0,0.0,59,0.00,,BKN047,0.00,11.00,VWS V14.01,2013-02-25 22:31:00,
2013-02-25 17:35:00,38.2,28.6,30.17,NW,323,0.0,1.0,68,0.00,,,0.00,0.00,VWS V14.01,2013-02-25 22:35:00,
2013-02-25 17:36:00,42.2,28.9,30.14,NW,323,0.0,1.0,59,0.00,,BKN047,0.00,7.00,VWS V14.01,2013-02-25 22:36:00,
2013-02-25 17:40:00,38.0,28.4,30.17,NW,323,0.0,0.0,68,0.00,,,0.00,0.00,VWS V14.01,2013-02-25 22:40:00,
2013-02-25 17:41:00,41.9,29.0,30.14,NW,323,0.0,1.0,60,0.00,,BKN047,0.00,0.00,VWS V14.01,2013-02-25 22:41:00,
2013-02-25 17:45:00,37.9,28.6,30.17,NW,323,0.0,0.0,69,0.00,,,0.00,0.00,VWS V14.01,2013-02-25 22:45:00,
2013-02-25 17:46:00,41.6,28.8,30.14,NW,323,0.0,0.0,60,0.00,,BKN047,0.00,0.00,VWS V14.01,2013-02-25 22:46:00,
2013-02-25 17:50:00,37.7,28.5,30.17,NW,323,0.0,0.0,69,0.00,,,0.00,0.00,VWS V14.01,2013-02-25 22:50:00,
2013-02-25 17:51:00,41.2,28.8,30.14,NW,323,0.0,0.0,61,0.00,,BKN047,0.00,0.00,VWS V14.01,2013-02-25 22:51:00,
2013-02-25 17:55:00,37.6,28.0,30.17,NW,323,0.0,0.0,68,0.00,,,0.00,0.00,VWS V14.01,2013-02-25 22:55:00,
2013-02-25 17:56:00,40.7,28.7,30.14,NW,323,0.0,0.0,62,0.00,,BKN047,0.00,0.00,VWS V14.01,2013-02-25 22:56:00,
2013-02-25 18:00:00,37.6,28.0,30.17,NW,323,0.0,0.0,68,0.00,,,0.00,0.00,VWS V14.01,2013-02-25 23:00:00,
2013-02-25 18:01:00,40.4,28.8,30.15,NW,323,0.0,0.0,63,0.00,,BKN049,0.00,0.00,VWS V14.01,2013-02-25 23:01:00,
2013-02-25 18:05:00,37.7,28.1,30.18,NW,323,0.0,1.0,68,0.00,,,0.00,0.00,VWS V14.01,2013-02-25 23:05:00,
2013-02-25 18:06:00,39.9,28.7,30.15,NW,323,0.0,0.0,64,0.00,,BKN049,0.00,0.00,VWS V14.01,2013-02-25 23:06:00,
2013-02-25 18:10:00,37.8,28.6,30.18,NW,323,0.0,1.0,69,0.00,,,0.00,0.00,VWS V14.01,2013-02-25 23:10:00,
2013-02-25 18:11:00,39.6,28.8,30.15,NW,323,0.0,0.0,65,0.00,,BKN049,0.00,0.00,VWS V14.01,2013-02-25 23:11:00,
2013-02-25 18:15:00,37.8,28.6,30.18,NW,323,0.0,0.0,69,0.00,,,0.00,0.00,VWS V14.01,2013-02-25 23:15:00,
2013-02-25 18:16:00,39.4,29.0,30.16,NW,323,0.0,0.0,66,0.00,,BKN049,0.00,0.00,VWS V14.01,2013-02-25 23:16:00,
2013-02-25 18:20:00,37.8,28.2,30.18,NW,323,0.0,1.0,68,0.00,,,0.00,0.00,VWS V14.01,2013-02-25 23:20:00,
2013-02-25 18:21:00,38.9,28.9,30.16,NW,323,0.0,0.0,67,0.00,,BKN049,0.00,0.00,VWS V14.01,2013-02-25 23:21:00,
2013-02-25 18:25:00,37.9,28.3,30.18,NW,323,0.0,0.0,68,0.00,,,0.00,0.00,VWS V14.01,2013-02-25 23:25:00,
2013-02-25 18:26:00,38.6,29.0,30.16,NW,323,0.0,1.0,68,0.00,,BKN049,0.00,0.00,VWS V14.01,2013-02-25 23:26:00,
2013-02-25 18:30:00,38.0,28.8,30.19,NW,323,0.0,1.0,69,0.00,,,0.00,0.00,VWS V14.01,2013-02-25 23:30:00,
2013-02-25 18:31:00,38.3,28.7,30.17,NW,323,0.0,1.0,68,0.00,,BKN049,0.00,0.00,VWS V14.01,2013-02-25 23:31:00,
2013-02-25 18:35:00,38.1,28.8,30.19,NW,323,1.0,1.0,69,0.00,,,0.00,0.00,VWS V14.01,2013-02-25 23:35:00,
2013-02-25 18:36:00,38.1,28.5,30.17,NW,323,0.0,0.0,68,0.00,,BKN049,0.00,0.00,VWS V14.01,2013-02-25 23:36:00,
2013-02-25 18:40:00,38.2,28.9,30.19,NW,323,0.0,1.0,69,0.00,,,0.00,0.00,VWS V14.01,2013-02-25 23:40:00,
2013-02-25 18:41:00,38.0,28.4,30.17,NW,323,0.0,0.0,68,0.00,,BKN049,0.00,0.00,VWS V14.01,2013-02-25 23:41:00,
2013-02-25 18:45:00,38.2,29.6,30.19,NW,323,0.0,2.0,71,0.00,,,0.00,0.00,VWS V14.01,2013-02-25 23:45:00,
2013-02-25 18:46:00,37.8,28.6,30.17,NW,323,0.0,0.0,69,0.00,,BKN049,0.00,0.00,VWS V14.01,2013-02-25 23:46:00,
2013-02-25 18:50:00,38.1,29.5,30.19,NW,323,1.0,2.0,71,0.00,,,0.00,0.00,VWS V14.01,2013-02-25 23:50:00,
2013-02-25 18:51:00,37.7,28.1,30.17,NW,323,0.0,0.0,68,0.00,,BKN049,0.00,0.00,VWS V14.01,2013-02-25 23:51:00,
2013-02-25 18:55:00,38.2,30.0,30.19,NW,323,1.0,3.0,72,0.00,,,0.00,0.00,VWS V14.01,2013-02-25 23:55:00,
2013-02-25 18:56:00,37.6,28.4,30.17,NW,323,0.0,0.0,69,0.00,,BKN049,0.00,0.00,VWS V14.01,2013-02-25 23:56:00,
2013-02-25 19:00:00,38.5,29.6,30.19,NW,323,0.0,2.0,70,0.00,,,0.00,0.00,VWS V14.01,2013-02-26 00:00:00,
2013-02-25 19:01:00,37.6,28.0,30.18,NW,323,0.0,0.0,68,0.00,,BKN049,0.00,0.00,VWS V14.01,2013-02-26 00:01:00,
2013-02-25 19:05:00,38.5,28.9,30.19,NW,323,1.0,1.0,68,0.00,,,0.00,0.00,VWS V14.01,2013-02-26 00:05:00,
2013-02-25 19:06:00,37.7,28.1,30.18,NW,323,0.0,0.0,68,0.00,,BKN049,0.00,0.00,VWS V14.01,2013-02-26 00:06:00,
2013-02-25 19:10:00,38.5,28.9,30.19,NW,323,0.0,1.0,68,0.00,,,0.00,0.00,VWS V14.01,2013-02-26 00:10:00,
2013-02-25 19:11:00,37.8,28.6,30.18,NW,323,0.0,0.0,69,0.00,,BKN049,0.00,0.00,VWS V14.01,2013-02-26 00:11:00,
2013-02-25 19:15:00,38.4,29.8,30.20,NW,323,0.0,0.0,71,0.00,,,0.00,0.00,VWS V14.01,2013-02-26 00:15:00,
2013-02-25 19:16:00,37.8,28.6,30.18,NW,323,0.0,0.0,69,0.00,,BKN049,0.00,0.00,VWS V14.01,2013-02-26 00:16:00,
2013-02-25 19:20:00,38.4,29.5,30.20,NW,323,0.0,0.0,70,0.00,,,0.00,0.00,VWS V14.01,2013-02-26 00:20:00,
2013-02-25 19:21:00,37.9,28.3,30.18,NW,323,0.0,0.0,68,0.00,,BKN049,0.00,0.00,VWS V14.01,2013-02-26 00:21:00,
2013-02-25 19:25:00,38.3,29.4,30.20,NW,323,0.0,0.0,70,0.00,,,0.00,0.00,VWS V14.01,2013-02-26 00:25:00,
2013-02-25 19:26:00,37.9,28.3,30.18,NW,323,0.0,0.0,68,0.00,,BKN049,0.00,0.00,VWS V14.01,2013-02-26 00:26:00,
2013-02-25 19:30:00,38.2,29.3,30.20,NW,323,0.0,0.0,70,0.00,,,0.00,0.00,VWS V14.01,2013-02-26 00:30:00,
2013-02-25 19:31:00,38.0,28.4,30.18,NW,323,0.0,0.0,68,0.00,,BKN049,0.00,0.00,VWS V14.01,2013-02-26 00:31:00,
2013-02-25 19:35:00,38.1,29.2,30.20,NW,323,0.0,0.0,70,0.00,,,0.00,0.00,VWS V14.01,2013-02-26 00:35:00,
2013-02-25 19:36:00,38.1,28.5,30.19,NW,323,0.0,1.0,68,0.00,,BKN049,0.00,0.00,VWS V14.01,2013-02-26 00:36:00,
2013-02-25 19:40:00,38.1,29.2,30.20,NW,323,0.0,0.0,70,0.00,,,0.00,0.00,VWS V14.01,2013-02-26 00:40:00,
2013-02-25 19:41:00,38.2,29.3,30.19,NW,323,0.0,0.0,70,0.00,,BKN049,0.00,0.00,VWS V14.01,2013-02-26 00:41:00,
2013-02-25 19:45:00,38.0,29.1,30.20,NW,323,0.0,0.0,70,0.00,,,0.00,0.00,VWS V14.01,2013-02-26 00:45:00,
2013-02-25 19:46:00,38.2,29.6,30.19,NW,323,0.0,0.0,71,0.00,,BKN049,0.00,0.00,VWS V14.01,2013-02-26 00:46:00,
2013-02-25 19:50:00,38.0,29.1,30.20,NW,323,0.0,0.0,70,0.00,,,0.00,0.00,VWS V14.01,2013-02-26 00:50:00,
2013-02-25 19:51:00,38.2,29.6,30.19,NW,323,0.0,1.0,71,0.00,,BKN049,0.00,0.00,VWS V14.01,2013-02-26 00:51:00,
2013-02-25 19:55:00,38.0,29.5,30.20,NW,323,0.0,1.0,71,0.00,,,0.00,0.00,VWS V14.01,2013-02-26 00:55:00,
2013-02-25 19:56:00,38.3,29.7,30.19,NW,323,2.0,2.0,71,0.00,,BKN049,0.00,0.00,VWS V14.01,2013-02-26 00:56:00,
2013-02-25 20:00:00,37.9,29.4,30.20,NW,323,0.0,1.0,71,0.00,,,0.00,0.00,VWS V14.01,2013-02-26 01:00:00,
2013-02-25 20:01:00,38.5,29.6,30.19,NW,323,0.0,0.0,70,0.00,,BKN055,0.00,0.00,VWS V14.01,2013-02-26 01:01:00,
2013-02-25 20:05:00,37.9,29.7,30.20,NW,323,0.0,2.0,72,0.00,,,0.00,0.00,VWS V14.01,2013-02-26 01:05:00,
2013-02-25 20:06:00,38.5,28.9,30.19,NW,323,0.0,1.0,68,0.00,,BKN055,0.00,0.00,VWS V14.01,2013-02-26 01:06:00,
2013-02-25 20:10:00,37.9,29.7,30.20,NW,323,0.0,0.0,72,0.00,,,0.00,0.00,VWS V14.01,2013-02-26 01:10:00,
2013-02-25 20:11:00,38.5,29.2,30.20,NW,323,0.0,0.0,69,0.00,,BKN055,0.00,0.00,VWS V14.01,2013-02-26 01:11:00,
2013-02-25 20:15:00,37.8,29.6,30.20,NW,323,0.0,0.0,72,0.00,,,0.00,0.00,VWS V14.01,2013-02-26 01:15:00,
2013-02-25 20:16:00,38.4,29.8,30.20,NW,323,0.0,0.0,71,0.00,,BKN055,0.00,0.00,VWS V14.01,2013-02-26 01:16:00,
2013-02-25 20:20:00,37.8,29.6,30.20,NW,323,0.0,1.0,72,0.00,,,0.00,0.00,VWS V14.01,2013-02-26 01:20:00,
2013-02-25 20:21:00,38.3,29.4,30.20,NW,323,0.0,0.0,70,0.00,,BKN055,0.00,0.00,VWS V14.01,2013-02-26 01:21:00,
2013-02-25 20:25:00,37.7,29.2,30.20,NW,323,0.0,0.0,71,0.00,,,0.00,0.00,VWS V14.01,2013-02-26 01:25:00,
2013-02-25 20:26:00,38.3,29.4,30.20,NW,323,0.0,0.0,70,0.00,,BKN055,0.00,0.00,VWS V14.01,2013-02-26 01:26:00,
2013-02-25 20:30:00,37.7,28.8,30.20,NW,323,0.0,0.0,70,0.00,,,0.00,0.00,VWS V14.01,2013-02-26 01:30:00,
2013-02-25 20:31:00,38.2,29.3,30.20,NW,323,0.0,0.0,70,0.00,,BKN055,0.00,0.00,VWS V14.01,2013-02-26 01:31:00,
2013-02-25 20:35:00,37.8,29.2,30.20,NW,323,0.0,0.0,71,0.00,,,0.00,0.00,VWS V14.01,2013-02-26 01:35:00,
2013-02-25 20:36:00,38.1,29.2,30.20,NW,323,0.0,0.0,70,0.00,,BKN055,0.00,0.00,VWS V14.01,2013-02-26 01:36:00,
2013-02-25 20:40:00,38.0,29.5,30.20,NW,323,0.0,1.0,71,0.00,,,0.00,0.00,VWS V14.01,2013-02-26 01:40:00,
2013-02-25 20:41:00,38.1,29.2,30.20,NW,323,0.0,0.0,70,0.00,,BKN055,0.00,0.00,VWS V14.01,2013-02-26 01:41:00,
2013-02-25 20:45:00,38.4,29.5,30.21,NW,323,0.0,2.0,70,0.00,,,0.00,0.00,VWS V14.01,2013-02-26 01:45:00,
2013-02-25 20:46:00,38.0,29.1,30.19,NW,323,0.0,0.0,70,0.00,,BKN055,0.00,0.00,VWS V14.01,2013-02-26 01:46:00,
2013-02-25 20:50:00,38.6,29.7,30.21,North,349,0.0,2.0,70,0.00,,,0.00,0.00,VWS V14.01,2013-02-26 01:50:00,
2013-02-25 20:51:00,38.0,29.1,30.20,NW,323,0.0,0.0,70,0.00,,BKN055,0.00,0.00,VWS V14.01,2013-02-26 01:51:00,
2013-02-25 20:55:00,38.8,29.5,30.21,North,349,0.0,2.0,69,0.00,,,0.00,0.00,VWS V14.01,2013-02-26 01:55:00,
2013-02-25 20:56:00,38.0,29.5,30.20,NW,323,0.0,0.0,71,0.00,,BKN055,0.00,0.00,VWS V14.01,2013-02-26 01:56:00,
2013-02-25 21:00:00,38.8,29.9,30.22,North,349,0.0,1.0,70,0.00,,,0.00,0.00,VWS V14.01,2013-02-26 02:00:00,
2013-02-25 21:01:00,37.9,29.4,30.20,NW,323,0.0,0.0,71,0.00,,BKN055,0.00,0.00,VWS V14.01,2013-02-26 02:01:00,
2013-02-25 21:05:00,38.8,30.2,30.22,North,349,1.0,1.0,71,0.00,,,0.00,0.00,VWS V14.01,2013-02-26 02:05:00,
2013-02-25 21:06:00,37.9,29.7,30.20,NW,323,0.0,0.0,72,0.00,,BKN055,0.00,0.00,VWS V14.01,2013-02-26 02:06:00,
2013-02-25 21:10:00,38.7,29.8,30.22,North,349,0.0,1.0,70,0.00,,,0.00,0.00,VWS V14.01,2013-02-26 02:10:00,
2013-02-25 21:11:00,37.9,29.7,30.20,NW,323,0.0,0.0,72,0.00,,BKN055,0.00,0.00,VWS V14.01,2013-02-26 02:11:00,
2013-02-25 21:15:00,38.7,29.8,30.22,North,349,0.0,2.0,70,0.00,,,0.00,0.00,VWS V14.01,2013-02-26 02:15:00,
2013-02-25 21:16:00,37.8,29.6,30.20,NW,323,0.0,0.0,72,0.00,,BKN055,0.00,0.00,VWS V14.01,2013-02-26 02:16:00,
2013-02-25 21:20:00,38.7,30.1,30.22,North,349,1.0,1.0,71,0.00,,,0.00,0.00,VWS V14.01,2013-02-26 02:20:00,
2013-02-25 21:21:00,37.8,29.6,30.20,NW,323,0.0,0.0,72,0.00,,BKN055,0.00,0.00,VWS V14.01,2013-02-26 02:21:00,
2013-02-25 21:25:00,38.8,30.2,30.22,NNE,24,1.0,3.0,71,0.00,,,0.00,0.00,VWS V14.01,2013-02-26 02:25:00,
2013-02-25 21:26:00,37.7,29.2,30.20,NW,323,0.0,0.0,71,0.00,,BKN055,0.00,0.00,VWS V14.01,2013-02-26 02:26:00,
2013-02-25 21:30:00,38.8,30.2,30.22,NNE,25,1.0,2.0,71,0.00,,,0.00,0.00,VWS V14.01,2013-02-26 02:30:00,
2013-02-25 21:31:00,37.8,28.9,30.20,NW,323,0.0,0.0,70,0.00,,BKN055,0.00,0.00,VWS V14.01,2013-02-26 02:31:00,
2013-02-25 21:35:00,38.8,30.2,30.21,NNE,25,0.0,2.0,71,0.00,,,0.00,0.00,VWS V14.01,2013-02-26 02:35:00,
2013-02-25 21:36:00,37.8,29.3,30.20,NW,323,0.0,0.0,71,0.00,,BKN055,0.00,0.00,VWS V14.01,2013-02-26 02:36:00,
2013-02-25 21:40:00,38.8,30.6,30.22,ENE,57,2.0,4.0,72,0.00,,,0.00,0.00,VWS V14.01,2013-02-26 02:40:00,
2013-02-25 21:41:00,38.0,29.5,30.20,NW,323,0.0,0.0,71,0.00,,BKN055,0.00,0.00,VWS V14.01,2013-02-26 02:41:00,
2013-02-25 21:45:00,38.8,30.6,30.22,ENE,57,0.0,3.0,72,0.00,,,0.00,0.00,VWS V14.01,2013-02-26 02:45:00,
2013-02-25 21:46:00,38.4,29.5,30.21,North,349,2.0,2.0,70,0.00,,BKN055,0.00,0.00,VWS V14.01,2013-02-26 02:46:00,
2013-02-25 21:50:00,38.8,30.6,30.22,ENE,57,0.0,2.0,72,0.00,,,0.00,0.00,VWS V14.01,2013-02-26 02:50:00,
2013-02-25 21:51:00,38.6,29.7,30.21,North,349,0.0,0.0,70,0.00,,BKN055,0.00,0.00,VWS V14.01,2013-02-26 02:51:00,
2013-02-25 21:55:00,38.7,30.8,30.21,ENE,57,0.0,0.0,73,0.00,,,0.00,0.00,VWS V14.01,2013-02-26 02:55:00,
2013-02-25 21:56:00,38.8,29.9,30.21,North,349,0.0,0.0,70,0.00,,BKN055,0.00,0.00,VWS V14.01,2013-02-26 02:56:00,
2013-02-25 22:00:00,38.6,30.7,30.21,ENE,57,0.0,1.0,73,0.00,,,0.00,0.00,VWS V14.01,2013-02-26 03:00:00,
2013-02-25 22:01:00,38.8,29.9,30.22,North,349,0.0,0.0,70,0.00,,BKN055,0.00,0.00,VWS V14.01,2013-02-26 03:01:00,
2013-02-25 22:05:00,38.4,30.5,30.21,NE,56,0.0,0.0,73,0.00,,,0.00,0.00,VWS V14.01,2013-02-26 03:05:00,
2013-02-25 22:06:00,38.8,30.2,30.22,North,349,0.0,1.0,71,0.00,,BKN055,0.00,0.00,VWS V14.01,2013-02-26 03:06:00,
2013-02-25 22:10:00,38.1,30.2,30.21,ENE,57,0.0,1.0,73,0.00,,,0.00,0.00,VWS V14.01,2013-02-26 03:10:00,
2013-02-25 22:11:00,38.7,29.8,30.22,North,349,0.0,0.0,70,0.00,,BKN055,0.00,0.00,VWS V14.01,2013-02-26 03:11:00,
2013-02-25 22:15:00,37.7,30.2,30.21,ENE,57,0.0,1.0,74,0.00,,,0.00,0.00,VWS V14.01,2013-02-26 03:15:00,
2013-02-25 22:16:00,38.7,29.8,30.22,North,349,0.0,0.0,70,0.00,,BKN055,0.00,0.00,VWS V14.01,2013-02-26 03:16:00,
2013-02-25 22:20:00,37.3,30.1,30.20,ENE,57,0.0,0.0,75,0.00,,,0.00,0.00,VWS V14.01,2013-02-26 03:20:00,
2013-02-25 22:21:00,38.7,30.1,30.22,NNE,22,1.0,1.0,71,0.00,,BKN055,0.00,0.00,VWS V14.01,2013-02-26 03:21:00,
2013-02-25 22:25:00,36.9,29.7,30.20,ENE,57,0.0,0.0,75,0.00,,,0.00,0.00,VWS V14.01,2013-02-26 03:25:00,
2013-02-25 22:26:00,38.8,30.2,30.22,NNE,24,0.0,1.0,71,0.00,,BKN055,0.00,0.00,VWS V14.01,2013-02-26 03:26:00,
2013-02-25 22:30:00,36.5,29.7,30.21,ENE,57,0.0,0.0,76,0.00,,,0.00,0.00,VWS V14.01,2013-02-26 03:30:00,
2013-02-25 22:31:00,38.8,30.2,30.22,NNE,25,0.0,2.0,71,0.00,,BKN055,0.00,0.00,VWS V14.01,2013-02-26 03:31:00,
2013-02-25 22:35:00,36.2,29.7,30.21,ENE,57,0.0,0.0,77,0.00,,,0.00,0.00,VWS V14.01,2013-02-26 03:35:00,
2013-02-25 22:36:00,38.8,30.2,30.21,NNE,25,0.0,0.0,71,0.00,,BKN055,0.00,0.00,VWS V14.01,2013-02-26 03:36:00,
2013-02-25 22:40:00,36.0,29.8,30.21,ENE,57,2.0,2.0,78,0.00,,,0.00,0.00,VWS V14.01,2013-02-26 03:40:00,
2013-02-25 22:41:00,38.8,30.6,30.22,ENE,57,0.0,2.0,72,0.00,,BKN055,0.00,0.00,VWS V14.01,2013-02-26 03:41:00,
2013-02-25 22:45:00,35.6,29.7,30.21,NE,56,0.0,3.0,79,0.00,,,0.00,0.00,VWS V14.01,2013-02-26 03:45:00,
2013-02-25 22:46:00,38.8,30.6,30.21,ENE,57,0.0,0.0,72,0.00,,BKN055,0.00,0.00,VWS V14.01,2013-02-26 03:46:00,
2013-02-25 22:50:00,35.5,29.6,30.20,NE,56,0.0,0.0,79,0.00,,,0.00,0.00,VWS V14.01,2013-02-26 03:50:00,
2013-02-25 22:51:00,38.8,30.6,30.22,ENE,57,0.0,0.0,72,0.00,,BKN055,0.00,0.00,VWS V14.01,2013-02-26 03:51:00,
2013-02-25 22:55:00,35.5,29.6,30.20,NE,56,0.0,0.0,79,0.00,,,0.00,0.00,VWS V14.01,2013-02-26 03:55:00,
2013-02-25 22:56:00,38.7,30.8,30.21,ENE,57,0.0,0.0,73,0.00,,BKN055,0.00,0.00,VWS V14.01,2013-02-26 03:56:00,
2013-02-25 23:00:00,35.5,29.6,30.20,NE,56,0.0,0.0,79,0.00,,,0.00,0.00,VWS V14.01,2013-02-26 04:00:00,
2013-02-25 23:01:00,38.6,30.7,30.21,ENE,57,0.0,0.0,73,0.00,,BKN055,0.00,0.00,VWS V14.01,2013-02-26 04:01:00,
2013-02-25 23:05:00,35.5,29.6,30.20,NE,56,0.0,0.0,79,0.00,,,0.00,0.00,VWS V14.01,2013-02-26 04:05:00,
2013-02-25 23:06:00,38.4,30.5,30.21,ENE,57,0.0,0.0,73,0.00,,BKN055,0.00,0.00,VWS V14.01,2013-02-26 04:06:00,
2013-02-25 23:10:00,35.5,29.6,30.20,NE,56,0.0,0.0,79,0.00,,,0.00,0.00,VWS V14.01,2013-02-26 04:10:00,
2013-02-25 23:11:00,38.0,30.1,30.20,ENE,57,1.0,1.0,73,0.00,,BKN055,0.00,0.00,VWS V14.01,2013-02-26 04:11:00,
2013-02-25 23:15:00,35.5,29.6,30.20,NE,56,0.0,0.0,79,0.00,,,0.00,0.00,VWS V14.01,2013-02-26 04:15:00,
2013-02-25 23:16:00,37.7,30.2,30.21,ENE,57,0.0,0.0,74,0.00,,BKN055,0.00,0.00,VWS V14.01,2013-02-26 04:16:00,
2013-02-25 23:20:00,35.5,29.6,30.20,NE,56,0.0,0.0,79,0.00,,,0.00,0.00,VWS V14.01,2013-02-26 04:20:00,
2013-02-25 23:21:00,37.3,30.1,30.20,ENE,57,0.0,0.0,75,0.00,,BKN055,0.00,0.00,VWS V14.01,2013-02-26 04:21:00,
2013-02-25 23:25:00,35.5,29.6,30.20,NE,56,0.0,0.0,79,0.00,,,0.00,0.00,VWS V14.01,2013-02-26 04:25:00,
2013-02-25 23:26:00,36.9,29.7,30.20,ENE,57,0.0,0.0,75,0.00,,BKN055,0.00,0.00,VWS V14.01,2013-02-26 04:26:00,
2013-02-25 23:30:00,35.5,29.6,30.20,NE,56,0.0,0.0,79,0.00,,,0.00,0.00,VWS V14.01,2013-02-26 04:30:00,
2013-02-25 23:31:00,36.5,30.0,30.21,ENE,57,0.0,0.0,77,0.00,,BKN055,0.00,0.00,VWS V14.01,2013-02-26 04:31:00,
2013-02-25 23:35:00,35.5,29.6,30.20,NE,56,0.0,0.0,79,0.00,,,0.00,0.00,VWS V14.01,2013-02-26 04:35:00,
2013-02-25 23:36:00,36.1,29.6,30.21,ENE,57,0.0,0.0,77,0.00,,BKN055,0.00,0.00,VWS V14.01,2013-02-26 04:36:00,
2013-02-25 23:40:00,35.5,29.6,30.20,NE,56,0.0,0.0,79,0.00,,,0.00,0.00,VWS V14.01,2013-02-26 04:40:00,
2013-02-25 23:41:00,35.9,29.7,30.21,NE,56,3.0,3.0,78,0.00,,BKN055,0.00,0.00,VWS V14.01,2013-02-26 04:41:00,
2013-02-25 23:45:00,35.5,29.6,30.19,NE,56,0.0,0.0,79,0.00,,,0.00,0.00,VWS V14.01,2013-02-26 04:45:00,
2013-02-25 23:46:00,35.6,29.7,30.20,NE,56,0.0,0.0,79,0.00,,BKN055,0.00,0.00,VWS V14.01,2013-02-26 04:46:00,
2013-02-25 23:50:00,35.5,29.6,30.19,NE,56,0.0,0.0,79,0.00,,,0.00,0.00,VWS V14.01,2013-02-26 04:50:00,
2013-02-25 23:51:00,35.5,29.6,30.20,NE,56,0.0,0.0,79,0.00,,BKN055,0.00,0.00,VWS V14.01,2013-02-26 04:51:00,
2013-02-25 23:55:00,35.5,29.6,30.19,NE,56,0.0,0.0,79,0.00,,,0.00,0.00,VWS V14.01,2013-02-26 04:55:00,
2013-02-25 23:56:00,35.5,29.6,30.20,NE,56,0.0,0.0,79,0.00,,BKN055,0.00,0.00,VWS V14.01,2013-02-26 04:56:00,